Time,TemperatureF,DewpointF,PressureIn,WindDirection,WindDirectionDegrees,WindSpeedMPH,WindSpeedGustMPH,Humidity,HourlyPrecipIn,Conditions,Clouds,dailyrainin,SoftwareType,DateUTC
2013-09-11 00:02:00,49.8,48.2,29.93,ENE,70,0.0,1.0,94,0.00,,,0.02,meteohub,2013-09-11 07:02:00,
2013-09-11 00:07:00,49.6,47.7,29.92,ENE,70,0.0,1.0,93,0.00,,,0.02,meteohub,2013-09-11 07:07:00,
2013-09-11 00:12:00,49.6,47.7,29.92,ENE,70,0.0,0.0,93,0.00,,,0.02,meteohub,2013-09-11 07:12:00,
2013-09-11 00:17:00,49.5,47.8,29.93,ENE,70,0.0,0.0,94,0.00,,,0.02,meteohub,2013-09-11 07:17:00,
2013-09-11 00:22:00,49.3,47.7,29.93,ENE,70,0.0,0.0,94,0.00,,,0.02,meteohub,2013-09-11 07:22:00,
2013-09-11 00:27:00,49.3,47.8,29.92,ENE,70,0.0,0.0,95,0.00,,,0.02,meteohub,2013-09-11 07:27:00,
2013-09-11 00:32:00,49.5,48.0,29.93,ENE,70,0.0,1.0,95,0.00,,,0.02,meteohub,2013-09-11 07:32:00,
2013-09-11 00:37:00,49.5,48.0,29.93,ENE,70,0.0,1.0,95,0.00,,,0.02,meteohub,2013-09-11 07:37:00,
2013-09-11 00:42:00,49.5,48.0,29.93,ENE,70,0.0,1.0,95,0.00,,,0.02,meteohub,2013-09-11 07:42:00,
2013-09-11 00:47:00,49.5,48.0,29.92,ENE,70,0.0,1.0,95,0.00,,,0.02,meteohub,2013-09-11 07:47:00,
2013-09-11 00:52:00,49.5,48.0,29.92,ENE,70,0.0,1.0,95,0.00,,,0.02,meteohub,2013-09-11 07:52:00,
2013-09-11 00:57:00,49.3,47.8,29.92,ENE,70,0.0,3.0,95,0.00,,,0.02,meteohub,2013-09-11 07:57:00,
2013-09-11 01:02:00,49.3,47.8,29.93,ENE,70,0.0,3.0,95,0.00,,,0.02,meteohub,2013-09-11 08:02:00,
2013-09-11 01:07:00,49.5,48.0,29.93,ENE,70,0.0,3.0,95,0.00,,,0.02,meteohub,2013-09-11 08:07:00,
2013-09-11 01:12:00,49.6,48.6,29.93,ENE,70,0.0,2.0,96,0.00,,,0.02,meteohub,2013-09-11 08:12:00,
2013-09-11 01:17:00,49.6,48.6,29.93,ENE,70,0.0,2.0,96,0.00,,,0.02,meteohub,2013-09-11 08:17:00,
2013-09-11 01:22:00,49.6,48.2,29.93,ENE,70,0.0,2.0,95,0.00,,,0.02,meteohub,2013-09-11 08:22:00,
2013-09-11 01:27:00,49.6,48.2,29.93,ENE,70,0.0,1.0,95,0.00,,,0.02,meteohub,2013-09-11 08:27:00,
2013-09-11 01:32:00,49.6,48.2,29.92,ENE,70,0.0,0.0,95,0.00,,,0.02,meteohub,2013-09-11 08:32:00,
2013-09-11 01:37:00,49.6,48.2,29.92,ENE,67,0.0,1.0,95,0.00,,,0.02,meteohub,2013-09-11 08:37:00,
2013-09-11 01:42:00,49.5,48.0,29.92,ENE,67,0.0,3.0,95,0.00,,,0.02,meteohub,2013-09-11 08:42:00,
2013-09-11 01:47:00,49.5,48.0,29.92,ENE,67,0.0,3.0,95,0.00,,,0.02,meteohub,2013-09-11 08:47:00,
2013-09-11 01:52:00,49.5,48.0,29.92,ENE,67,0.0,3.0,95,0.00,,,0.02,meteohub,2013-09-11 08:52:00,
2013-09-11 01:57:00,49.5,48.0,29.91,ENE,67,0.0,0.0,95,0.00,,,0.02,meteohub,2013-09-11 08:57:00,
2013-09-11 02:02:00,49.5,48.0,29.92,ENE,67,0.0,0.0,95,0.00,,,0.02,meteohub,2013-09-11 09:02:00,
2013-09-11 02:07:00,49.5,48.0,29.92,ENE,67,0.0,1.0,95,0.00,,,0.02,meteohub,2013-09-11 09:07:00,
2013-09-11 02:12:00,49.5,48.4,29.92,ENE,67,0.0,1.0,96,0.00,,,0.02,meteohub,2013-09-11 09:12:00,
2013-09-11 02:17:00,49.6,48.6,29.92,ENE,67,0.0,1.0,96,0.00,,,0.02,meteohub,2013-09-11 09:17:00,
2013-09-11 02:22:00,49.6,48.2,29.92,ENE,67,0.0,1.0,95,0.00,,,0.02,meteohub,2013-09-11 09:22:00,
2013-09-11 02:27:00,49.8,48.4,29.92,ENE,67,0.0,1.0,95,0.00,,,0.02,meteohub,2013-09-11 09:27:00,
2013-09-11 02:32:00,49.6,48.2,29.92,ENE,67,0.0,1.0,95,0.00,,,0.02,meteohub,2013-09-11 09:32:00,
2013-09-11 02:37:00,49.6,48.2,29.92,ENE,67,0.0,1.0,95,0.00,,,0.02,meteohub,2013-09-11 09:37:00,
2013-09-11 02:42:00,49.6,48.2,29.92,ENE,67,0.0,1.0,95,0.00,,,0.02,meteohub,2013-09-11 09:42:00,
2013-09-11 02:47:00,49.6,48.2,29.92,ENE,67,0.0,1.0,95,0.00,,,0.02,meteohub,2013-09-11 09:47:00,
2013-09-11 02:52:00,49.6,48.2,29.92,ENE,67,0.0,0.0,95,0.00,,,0.02,meteohub,2013-09-11 09:52:00,
2013-09-11 02:57:00,49.5,48.0,29.92,ENE,67,0.0,0.0,95,0.00,,,0.02,meteohub,2013-09-11 09:57:00,
2013-09-11 03:02:00,49.5,48.0,29.92,ENE,67,0.0,0.0,95,0.00,,,0.02,meteohub,2013-09-11 10:02:00,
2013-09-11 03:07:00,49.6,48.6,29.92,ENE,67,0.0,0.0,96,0.00,,,0.02,meteohub,2013-09-11 10:07:00,
2013-09-11 03:12:00,49.6,48.6,29.92,ENE,67,0.0,1.0,96,0.00,,,0.02,meteohub,2013-09-11 10:12:00,
2013-09-11 03:17:00,49.6,48.6,29.92,ENE,67,0.0,3.0,96,0.00,,,0.02,meteohub,2013-09-11 10:17:00,
2013-09-11 03:22:00,49.8,48.7,29.92,SE,136,0.0,3.0,96,0.00,,,0.02,meteohub,2013-09-11 10:22:00,
2013-09-11 03:27:00,49.8,48.4,29.92,SE,136,0.0,3.0,95,0.00,,,0.02,meteohub,2013-09-11 10:27:00,
2013-09-11 03:32:00,49.8,48.4,29.92,SE,136,0.0,2.0,95,0.00,,,0.02,meteohub,2013-09-11 10:32:00,
2013-09-11 03:37:00,49.8,48.4,29.91,SE,136,0.0,2.0,95,0.00,,,0.02,meteohub,2013-09-11 10:37:00,
2013-09-11 03:42:00,49.6,48.2,29.91,SE,136,0.0,1.0,95,0.00,,,0.02,meteohub,2013-09-11 10:42:00,
2013-09-11 03:47:00,49.6,48.2,29.92,SE,136,0.0,1.0,95,0.00,,,0.02,meteohub,2013-09-11 10:47:00,
2013-09-11 03:52:00,49.6,48.2,29.92,SE,136,0.0,0.0,95,0.00,,,0.02,meteohub,2013-09-11 10:52:00,
2013-09-11 03:57:00,49.6,48.2,29.92,SE,136,0.0,1.0,95,0.00,,,0.02,meteohub,2013-09-11 10:57:00,
2013-09-11 04:02:00,49.6,48.2,29.92,SE,136,0.0,1.0,95,0.00,,,0.02,meteohub,2013-09-11 11:02:00,
2013-09-11 04:07:00,49.5,48.0,29.92,SE,136,0.0,1.0,95,0.00,,,0.02,meteohub,2013-09-11 11:07:00,
2013-09-11 04:12:00,49.3,47.8,29.92,SE,136,0.0,2.0,95,0.00,,,0.02,meteohub,2013-09-11 11:12:00,
2013-09-11 04:17:00,49.3,47.8,29.92,SE,136,0.0,2.0,95,0.00,,,0.02,meteohub,2013-09-11 11:17:00,
2013-09-11 04:22:00,49.3,48.2,29.92,SE,136,0.0,2.0,96,0.00,,,0.02,meteohub,2013-09-11 11:22:00,
2013-09-11 04:27:00,49.3,48.2,29.92,SE,136,0.0,0.0,96,0.00,,,0.02,meteohub,2013-09-11 11:27:00,
2013-09-11 04:32:00,49.3,48.2,29.92,SE,138,2.0,0.0,96,0.00,,,0.02,meteohub,2013-09-11 11:32:00,
2013-09-11 04:37:00,48.9,47.5,29.92,SE,138,0.0,2.0,95,0.00,,,0.02,meteohub,2013-09-11 11:37:00,
2013-09-11 04:42:00,48.7,47.3,29.92,SE,138,0.0,2.0,95,0.00,,,0.02,meteohub,2013-09-11 11:42:00,
2013-09-11 04:47:00,48.9,47.8,29.93,SE,138,0.0,2.0,96,0.00,,,0.02,meteohub,2013-09-11 11:47:00,
2013-09-11 04:52:00,48.9,47.8,29.93,SE,138,0.0,0.0,96,0.00,,,0.02,meteohub,2013-09-11 11:52:00,
2013-09-11 04:57:00,48.9,47.8,29.92,SE,138,0.0,0.0,96,0.00,,,0.02,meteohub,2013-09-11 11:57:00,
2013-09-11 05:02:00,48.9,47.8,29.93,SE,138,0.0,0.0,96,0.00,,,0.02,meteohub,2013-09-11 12:02:00,
2013-09-11 05:07:00,48.6,47.1,29.93,SE,138,0.0,3.0,95,0.00,,,0.02,meteohub,2013-09-11 12:07:00,
2013-09-11 05:12:00,48.7,47.7,29.93,SE,138,0.0,3.0,96,0.00,,,0.02,meteohub,2013-09-11 12:12:00,
2013-09-11 05:17:00,48.7,47.7,29.93,SE,138,0.0,3.0,96,0.00,,,0.02,meteohub,2013-09-11 12:17:00,
2013-09-11 05:22:00,48.7,47.7,29.93,SE,138,0.0,0.0,96,0.00,,,0.02,meteohub,2013-09-11 12:22:00,
2013-09-11 05:27:00,48.7,47.7,29.93,SE,138,0.0,0.0,96,0.00,,,0.02,meteohub,2013-09-11 12:27:00,
2013-09-11 05:32:00,48.7,47.7,29.93,SE,138,0.0,0.0,96,0.00,,,0.02,meteohub,2013-09-11 12:32:00,
2013-09-11 05:37:00,48.7,47.7,29.93,SE,138,0.0,0.0,96,0.00,,,0.02,meteohub,2013-09-11 12:37:00,
2013-09-11 05:42:00,48.6,47.5,29.93,SE,138,0.0,0.0,96,0.00,,,0.02,meteohub,2013-09-11 12:42:00,
2013-09-11 05:47:00,48.6,47.5,29.93,SE,138,0.0,0.0,96,0.00,,,0.02,meteohub,2013-09-11 12:47:00,
2013-09-11 05:57:00,48.6,47.5,29.94,SE,138,0.0,0.0,96,0.00,,,0.02,meteohub,2013-09-11 12:57:00,
2013-09-11 06:02:00,48.6,47.5,29.94,SE,138,0.0,0.0,96,0.00,,,0.02,meteohub,2013-09-11 13:02:00,
2013-09-11 06:07:00,48.7,47.8,29.94,SE,138,0.0,0.0,97,0.00,,,0.02,meteohub,2013-09-11 13:07:00,
2013-09-11 06:12:00,48.7,47.8,29.94,SE,138,0.0,0.0,97,0.00,,,0.02,meteohub,2013-09-11 13:12:00,
2013-09-11 06:17:00,48.7,47.7,29.94,SE,138,0.0,0.0,96,0.00,,,0.02,meteohub,2013-09-11 13:17:00,
2013-09-11 06:22:00,48.7,47.7,29.94,SE,138,0.0,1.0,96,0.00,,,0.02,meteohub,2013-09-11 13:22:00,
2013-09-11 06:27:00,48.7,47.7,29.94,SE,138,0.0,1.0,96,0.00,,,0.02,meteohub,2013-09-11 13:27:00,
2013-09-11 06:32:00,48.7,47.8,29.94,SE,138,0.0,1.0,97,0.00,,,0.02,meteohub,2013-09-11 13:32:00,
2013-09-11 06:37:00,48.7,47.8,29.94,SE,138,0.0,1.0,97,0.00,,,0.02,meteohub,2013-09-11 13:37:00,
2013-09-11 06:42:00,48.9,48.0,29.94,SE,138,0.0,1.0,97,0.00,,,0.02,meteohub,2013-09-11 13:42:00,
2013-09-11 06:47:00,48.9,48.0,29.94,SE,138,0.0,0.0,97,0.00,,,0.02,meteohub,2013-09-11 13:47:00,
2013-09-11 06:52:00,49.3,48.4,29.95,SE,138,0.0,0.0,97,0.00,,,0.02,meteohub,2013-09-11 13:52:00,
2013-09-11 06:57:00,49.5,48.6,29.95,SE,138,0.0,0.0,97,0.00,,,0.02,meteohub,2013-09-11 13:57:00,
2013-09-11 07:02:00,49.6,48.7,29.95,SE,138,0.0,0.0,97,0.00,,,0.02,meteohub,2013-09-11 14:02:00,
2013-09-11 07:07:00,50.0,49.1,29.95,SE,138,0.0,0.0,97,0.00,,,0.02,meteohub,2013-09-11 14:07:00,
2013-09-11 07:12:00,50.4,49.5,29.94,SE,138,1.0,0.0,97,0.00,,,0.02,meteohub,2013-09-11 14:12:00,
2013-09-11 07:17:00,50.5,49.6,29.94,SE,138,0.0,1.0,97,0.00,,,0.02,meteohub,2013-09-11 14:17:00,
2013-09-11 07:22:00,50.7,49.6,29.94,SE,138,1.0,2.0,96,0.00,,,0.02,meteohub,2013-09-11 14:22:00,
2013-09-11 07:27:00,51.1,50.0,29.94,WSW,246,0.0,3.0,96,0.00,,,0.02,meteohub,2013-09-11 14:27:00,
2013-09-11 07:32:00,51.3,49.8,29.94,WSW,246,0.0,3.0,95,0.00,,,0.02,meteohub,2013-09-11 14:32:00,
2013-09-11 07:37:00,51.3,49.6,29.94,WSW,246,0.0,3.0,94,0.00,,,0.02,meteohub,2013-09-11 14:37:00,
2013-09-11 07:42:00,51.6,50.0,29.94,WSW,246,0.0,2.0,94,0.00,,,0.02,meteohub,2013-09-11 14:42:00,
2013-09-11 07:47:00,51.6,49.5,29.94,WSW,246,0.0,1.0,92,0.00,,,0.02,meteohub,2013-09-11 14:47:00,
2013-09-11 07:52:00,52.0,50.0,29.94,WSW,246,0.0,1.0,93,0.00,,,0.02,meteohub,2013-09-11 14:52:00,
2013-09-11 07:57:00,52.2,49.8,29.94,WSW,246,0.0,0.0,92,0.00,,,0.02,meteohub,2013-09-11 14:57:00,
2013-09-11 08:02:00,52.3,50.0,29.94,WSW,246,0.0,0.0,92,0.00,,,0.02,meteohub,2013-09-11 15:02:00,
2013-09-11 08:07:00,52.5,50.0,29.94,WSW,246,0.0,0.0,91,0.00,,,0.02,meteohub,2013-09-11 15:07:00,
2013-09-11 08:12:00,52.7,50.2,29.94,WSW,246,0.0,1.0,91,0.00,,,0.02,meteohub,2013-09-11 15:12:00,
2013-09-11 08:17:00,52.9,50.0,29.94,WSW,246,0.0,1.0,90,0.00,,,0.02,meteohub,2013-09-11 15:17:00,
2013-09-11 08:22:00,53.1,50.2,29.94,WSW,246,0.0,1.0,90,0.00,,,0.02,meteohub,2013-09-11 15:22:00,
2013-09-11 08:27:00,53.2,50.7,29.94,WSW,246,1.0,1.0,91,0.00,,,0.02,meteohub,2013-09-11 15:27:00,
2013-09-11 08:32:00,53.4,50.9,29.94,WSW,246,0.0,1.0,91,0.00,,,0.02,meteohub,2013-09-11 15:32:00,
2013-09-11 08:37:00,53.8,50.9,29.94,WSW,246,0.0,1.0,90,0.00,,,0.02,meteohub,2013-09-11 15:37:00,
2013-09-11 08:42:00,54.0,50.7,29.94,North,10,1.0,2.0,89,0.00,,,0.02,meteohub,2013-09-11 15:42:00,
2013-09-11 08:47:00,54.0,50.5,29.94,North,10,0.0,2.0,88,0.00,,,0.02,meteohub,2013-09-11 15:47:00,
2013-09-11 08:52:00,54.1,50.9,29.94,North,10,1.0,2.0,89,0.00,,,0.02,meteohub,2013-09-11 15:52:00,
2013-09-11 08:57:00,54.7,51.3,29.94,NE,42,1.0,2.0,88,0.00,,,0.02,meteohub,2013-09-11 15:57:00,
2013-09-11 09:02:00,55.0,50.9,29.94,NE,42,0.0,3.0,86,0.00,,,0.02,meteohub,2013-09-11 16:02:00,
2013-09-11 09:07:00,55.2,50.7,29.94,NE,42,0.0,3.0,85,0.00,,,0.02,meteohub,2013-09-11 16:07:00,
2013-09-11 09:12:00,55.9,52.2,29.94,NE,42,2.0,3.0,87,0.00,,,0.02,meteohub,2013-09-11 16:12:00,
2013-09-11 09:17:00,56.5,52.0,29.93,NE,42,0.0,3.0,85,0.00,,,0.02,meteohub,2013-09-11 16:17:00,
2013-09-11 09:22:00,57.2,53.1,29.93,ENE,57,1.0,3.0,86,0.00,,,0.02,meteohub,2013-09-11 16:22:00,
2013-09-11 09:27:00,57.9,52.7,29.93,NE,56,1.0,3.0,83,0.00,,,0.02,meteohub,2013-09-11 16:27:00,
2013-09-11 09:32:00,58.8,53.4,29.93,NE,53,1.0,4.0,82,0.00,,,0.02,meteohub,2013-09-11 16:32:00,
2013-09-11 09:37:00,59.2,53.1,29.92,NE,52,0.0,4.0,80,0.00,,,0.02,meteohub,2013-09-11 16:37:00,
2013-09-11 09:42:00,59.5,53.1,29.92,NE,52,2.0,4.0,79,0.00,,,0.02,meteohub,2013-09-11 16:42:00,
2013-09-11 09:47:00,59.7,53.6,29.92,NE,34,0.0,3.0,80,0.00,,,0.02,meteohub,2013-09-11 16:47:00,
2013-09-11 09:52:00,60.1,53.2,29.92,WNW,300,1.0,3.0,78,0.00,,,0.02,meteohub,2013-09-11 16:52:00,
2013-09-11 09:57:00,60.3,53.1,29.92,WNW,300,0.0,3.0,77,0.00,,,0.02,meteohub,2013-09-11 16:57:00,
2013-09-11 10:02:00,60.6,52.7,29.92,NW,316,3.0,3.0,75,0.00,,,0.02,meteohub,2013-09-11 17:02:00,
2013-09-11 10:07:00,60.6,53.1,29.93,NE,46,9.0,9.0,76,0.00,,,0.02,meteohub,2013-09-11 17:07:00,
2013-09-11 10:12:00,59.2,52.7,29.92,NE,49,6.0,12.0,79,0.00,,,0.02,meteohub,2013-09-11 17:12:00,
2013-09-11 10:17:00,58.6,53.4,29.92,ENE,76,7.0,12.0,83,0.00,,,0.02,meteohub,2013-09-11 17:17:00,
2013-09-11 10:22:00,59.2,54.7,29.92,East,82,2.0,12.0,85,0.00,,,0.02,meteohub,2013-09-11 17:22:00,
2013-09-11 10:27:00,60.1,54.5,29.92,NE,47,3.0,11.0,82,0.00,,,0.02,meteohub,2013-09-11 17:27:00,
2013-09-11 10:32:00,61.2,54.7,29.91,NNE,27,4.0,8.0,79,0.00,,,0.02,meteohub,2013-09-11 17:32:00,
2013-09-11 10:37:00,61.9,52.7,29.91,NNW,347,4.0,8.0,72,0.00,,,0.02,meteohub,2013-09-11 17:37:00,
2013-09-11 10:42:00,62.2,52.0,29.91,NW,316,3.0,10.0,69,0.00,,,0.02,meteohub,2013-09-11 17:42:00,
2013-09-11 10:47:00,62.4,52.9,29.91,NNW,329,0.0,10.0,71,0.00,,,0.02,meteohub,2013-09-11 17:47:00,
2013-09-11 10:52:00,63.3,54.9,29.91,NNE,30,7.0,11.0,74,0.00,,,0.02,meteohub,2013-09-11 17:52:00,
2013-09-11 10:57:00,63.0,54.1,29.91,NE,49,3.0,11.0,73,0.00,,,0.02,meteohub,2013-09-11 17:57:00,
2013-09-11 11:02:00,63.0,53.8,29.91,NNE,32,3.0,11.0,72,0.00,,,0.02,meteohub,2013-09-11 18:02:00,
2013-09-11 11:07:00,62.4,52.9,29.91,NNE,19,5.0,9.0,71,0.00,,,0.02,meteohub,2013-09-11 18:07:00,
2013-09-11 11:12:00,62.2,53.8,29.91,NE,46,4.0,8.0,74,0.00,,,0.02,meteohub,2013-09-11 18:12:00,
2013-09-11 11:17:00,62.4,54.0,29.90,North,355,6.0,8.0,74,0.00,,,0.02,meteohub,2013-09-11 18:17:00,
2013-09-11 11:22:00,62.4,53.6,29.91,North,5,7.0,7.0,73,0.00,,,0.02,meteohub,2013-09-11 18:22:00,
2013-09-11 11:27:00,61.9,54.3,29.91,North,9,6.0,10.0,76,0.00,,,0.02,meteohub,2013-09-11 18:27:00,
2013-09-11 11:32:00,61.2,54.3,29.91,NE,53,3.0,11.0,78,0.00,,,0.02,meteohub,2013-09-11 18:32:00,
2013-09-11 11:37:00,61.5,54.7,29.91,NE,42,6.0,11.0,78,0.00,,,0.02,meteohub,2013-09-11 18:37:00,
2013-09-11 11:42:00,62.2,52.7,29.90,ENE,59,2.0,11.0,71,0.00,,,0.02,meteohub,2013-09-11 18:42:00,
2013-09-11 11:47:00,63.5,54.3,29.90,NE,53,4.0,9.0,72,0.00,,,0.02,meteohub,2013-09-11 18:47:00,
2013-09-11 11:52:00,63.9,53.1,29.90,ENE,57,5.0,8.0,68,0.00,,,0.02,meteohub,2013-09-11 18:52:00,
2013-09-11 11:57:00,63.7,54.1,29.89,ENE,57,2.0,7.0,71,0.00,,,0.02,meteohub,2013-09-11 18:57:00,
2013-09-11 12:02:00,63.7,54.1,29.89,NE,40,7.0,9.0,71,0.00,,,0.02,meteohub,2013-09-11 19:02:00,
2013-09-11 12:07:00,64.0,54.5,29.89,ENE,57,13.0,13.0,71,0.00,,,0.02,meteohub,2013-09-11 19:07:00,
2013-09-11 12:12:00,64.0,52.9,29.89,NE,53,7.0,13.0,67,0.00,,,0.02,meteohub,2013-09-11 19:12:00,
2013-09-11 12:22:00,64.2,52.7,29.88,NNE,30,3.0,13.0,66,0.00,,,0.02,meteohub,2013-09-11 19:22:00,
2013-09-11 12:27:00,65.1,54.0,29.88,NE,55,10.0,10.0,67,0.00,,,0.02,meteohub,2013-09-11 19:27:00,
2013-09-11 12:32:00,65.8,52.0,29.87,ENE,63,1.0,10.0,61,0.00,,,0.02,meteohub,2013-09-11 19:32:00,
2013-09-11 12:37:00,65.7,51.4,29.87,NE,51,5.0,10.0,60,0.00,,,0.02,meteohub,2013-09-11 19:37:00,
2013-09-11 12:52:00,63.1,52.3,29.89,WSW,253,8.0,8.0,68,0.02,,,0.04,meteohub,2013-09-11 19:52:00,
2013-09-11 12:57:00,60.4,51.8,29.88,South,175,5.0,15.0,73,0.07,,,0.09,meteohub,2013-09-11 19:57:00,
2013-09-11 13:02:00,59.7,51.8,29.88,SE,137,11.0,15.0,75,0.08,,,0.10,meteohub,2013-09-11 20:02:00,
2013-09-11 13:07:00,59.9,49.6,29.88,SSE,153,5.0,15.0,69,0.08,,,0.10,meteohub,2013-09-11 20:07:00,
2013-09-11 13:12:00,60.6,50.0,29.88,SE,145,4.0,18.0,68,0.08,,,0.10,meteohub,2013-09-11 20:12:00,
2013-09-11 13:17:00,61.5,50.0,29.88,South,175,1.0,18.0,66,0.08,,,0.10,meteohub,2013-09-11 20:17:00,
2013-09-11 13:22:00,62.8,54.3,29.87,WSW,242,3.0,18.0,74,0.08,,,0.10,meteohub,2013-09-11 20:22:00,
2013-09-11 13:27:00,63.7,52.9,29.87,WSW,257,6.0,9.0,68,0.08,,,0.10,meteohub,2013-09-11 20:27:00,
2013-09-11 13:32:00,64.2,50.9,29.87,West,267,5.0,9.0,62,0.08,,,0.10,meteohub,2013-09-11 20:32:00,
2013-09-11 13:37:00,64.0,49.5,29.87,WNW,302,3.0,9.0,59,0.08,,,0.10,meteohub,2013-09-11 20:37:00,
2013-09-11 13:42:00,64.4,50.2,29.87,WNW,302,0.0,9.0,60,0.08,,,0.10,meteohub,2013-09-11 20:42:00,
2013-09-11 13:47:00,65.1,53.1,29.86,NE,49,5.0,9.0,65,0.08,,,0.10,meteohub,2013-09-11 20:47:00,
2013-09-11 13:52:00,66.0,52.7,29.86,ENE,60,5.0,8.0,62,0.04,,,0.10,meteohub,2013-09-11 20:52:00,
2013-09-11 13:57:00,66.6,52.7,29.86,ENE,58,5.0,13.0,61,0.00,,,0.10,meteohub,2013-09-11 20:57:00,
2013-09-11 14:02:00,66.7,51.4,29.86,NE,54,5.0,13.0,58,0.00,,,0.10,meteohub,2013-09-11 21:02:00,
2013-09-11 14:07:00,66.7,51.4,29.86,NE,48,4.0,13.0,58,0.00,,,0.10,meteohub,2013-09-11 21:07:00,
2013-09-11 14:12:00,67.1,51.4,29.86,ENE,70,2.0,12.0,57,0.00,,,0.10,meteohub,2013-09-11 21:12:00,
2013-09-11 14:17:00,67.3,50.5,29.86,East,84,2.0,10.0,55,0.00,,,0.10,meteohub,2013-09-11 21:17:00,
2013-09-11 14:22:00,67.3,51.1,29.86,East,88,1.0,10.0,56,0.00,,,0.10,meteohub,2013-09-11 21:22:00,
2013-09-11 14:27:00,66.9,49.8,29.86,ENE,65,2.0,9.0,54,0.00,,,0.10,meteohub,2013-09-11 21:27:00,
2013-09-11 14:32:00,67.3,49.6,29.86,East,87,0.0,9.0,53,0.00,,,0.10,meteohub,2013-09-11 21:32:00,
2013-09-11 14:37:00,67.5,49.3,29.85,ENE,61,3.0,9.0,52,0.00,,,0.10,meteohub,2013-09-11 21:37:00,
2013-09-11 14:42:00,67.8,49.6,29.85,NE,52,8.0,9.0,52,0.00,,,0.10,meteohub,2013-09-11 21:42:00,
2013-09-11 14:47:00,67.8,48.6,29.85,ESE,121,7.0,9.0,50,0.00,,,0.10,meteohub,2013-09-11 21:47:00,
2013-09-11 14:52:00,68.2,48.9,29.86,East,96,2.0,9.0,50,0.00,,,0.10,meteohub,2013-09-11 21:52:00,
2013-09-11 14:57:00,68.4,50.0,29.85,North,10,5.0,9.0,52,0.00,,,0.10,meteohub,2013-09-11 21:57:00,
2013-09-11 15:02:00,68.5,48.0,29.85,NE,44,3.0,9.0,48,0.00,,,0.10,meteohub,2013-09-11 22:02:00,
2013-09-11 15:07:00,68.5,48.0,29.85,East,83,2.0,9.0,48,0.00,,,0.10,meteohub,2013-09-11 22:07:00,
2013-09-11 15:12:00,68.9,51.1,29.85,NE,56,4.0,9.0,53,0.00,,,0.10,meteohub,2013-09-11 22:12:00,
2013-09-11 15:17:00,68.9,47.8,29.85,ENE,69,4.0,9.0,47,0.00,,,0.10,meteohub,2013-09-11 22:17:00,
2013-09-11 15:22:00,67.8,49.6,29.85,ENE,63,5.0,8.0,52,0.00,,,0.10,meteohub,2013-09-11 22:22:00,
2013-09-11 15:27:00,66.7,50.5,29.85,NE,53,8.0,10.0,56,0.00,,,0.10,meteohub,2013-09-11 22:27:00,
2013-09-11 15:32:00,66.4,50.2,29.85,NE,55,8.0,11.0,56,0.00,,,0.10,meteohub,2013-09-11 22:32:00,
2013-09-11 15:42:00,65.7,50.5,29.85,NE,49,5.0,10.0,58,0.00,,,0.10,meteohub,2013-09-11 22:42:00,
2013-09-11 15:47:00,65.1,50.0,29.86,NE,45,5.0,10.0,58,0.00,,,0.10,meteohub,2013-09-11 22:47:00,
2013-09-11 15:52:00,65.5,51.6,29.86,NE,51,4.0,8.0,61,0.00,,,0.10,meteohub,2013-09-11 22:52:00,
2013-09-11 15:57:00,65.8,52.0,29.86,NE,51,8.0,8.0,61,0.00,,,0.10,meteohub,2013-09-11 22:57:00,
2013-09-11 16:02:00,65.8,51.1,29.86,NE,52,5.0,8.0,59,0.00,,,0.10,meteohub,2013-09-11 23:02:00,
2013-09-11 16:07:00,66.4,52.5,29.86,ENE,57,5.0,10.0,61,0.00,,,0.10,meteohub,2013-09-11 23:07:00,
2013-09-11 16:12:00,66.7,52.0,29.86,NE,51,6.0,10.0,59,0.00,,,0.10,meteohub,2013-09-11 23:12:00,
2013-09-11 16:17:00,66.9,52.5,29.85,NE,48,6.0,10.0,60,0.00,,,0.10,meteohub,2013-09-11 23:17:00,
2013-09-11 16:22:00,67.5,52.7,29.85,NE,44,1.0,10.0,59,0.00,,,0.10,meteohub,2013-09-11 23:22:00,
2013-09-11 16:27:00,67.5,51.6,29.85,NE,44,4.0,10.0,57,0.00,,,0.10,meteohub,2013-09-11 23:27:00,
2013-09-11 16:32:00,67.5,52.2,29.85,ENE,57,5.0,11.0,58,0.00,,,0.10,meteohub,2013-09-11 23:32:00,
2013-09-11 16:42:00,66.7,52.0,29.85,NE,37,9.0,11.0,59,0.00,,,0.10,meteohub,2013-09-11 23:42:00,
2013-09-11 16:52:00,66.0,51.8,29.85,NE,37,6.0,10.0,60,0.00,,,0.10,meteohub,2013-09-11 23:52:00,
2013-09-11 16:57:00,66.0,51.8,29.85,NE,50,5.0,11.0,60,0.00,,,0.10,meteohub,2013-09-11 23:57:00,
2013-09-11 17:02:00,66.2,51.4,29.85,ENE,63,2.0,11.0,59,0.00,,,0.10,meteohub,2013-09-12 00:02:00,
2013-09-11 17:07:00,66.6,51.8,29.85,NE,49,3.0,11.0,59,0.00,,,0.00,meteohub,2013-09-12 00:07:00,
2013-09-11 17:12:00,66.4,52.2,29.85,NE,49,6.0,11.0,60,0.00,,,0.00,meteohub,2013-09-12 00:12:00,
2013-09-11 17:17:00,66.0,52.2,29.85,ENE,57,7.0,10.0,61,0.00,,,0.00,meteohub,2013-09-12 00:17:00,
2013-09-11 17:22:00,65.7,50.9,29.85,ENE,59,8.0,10.0,59,0.00,,,0.00,meteohub,2013-09-12 00:22:00,
2013-09-11 17:27:00,65.1,50.9,29.85,NE,49,9.0,10.0,60,0.00,,,0.00,meteohub,2013-09-12 00:27:00,
2013-09-11 17:32:00,64.8,51.1,29.85,NE,50,6.0,11.0,61,0.00,,,0.00,meteohub,2013-09-12 00:32:00,
2013-09-11 17:37:00,64.6,50.9,29.86,ENE,57,8.0,11.0,61,0.00,,,0.00,meteohub,2013-09-12 00:37:00,
2013-09-11 17:42:00,64.2,50.9,29.86,NE,56,3.0,11.0,62,0.00,,,0.00,meteohub,2013-09-12 00:42:00,
2013-09-11 17:47:00,64.0,51.3,29.86,NE,51,4.0,9.0,63,0.00,,,0.00,meteohub,2013-09-12 00:47:00,
2013-09-11 17:52:00,63.7,50.9,29.86,NE,38,6.0,9.0,63,0.00,,,0.00,meteohub,2013-09-12 00:52:00,
2013-09-11 17:57:00,62.8,51.3,29.86,NE,49,4.0,8.0,66,0.00,,,0.00,meteohub,2013-09-12 00:57:00,
2013-09-11 18:02:00,61.9,51.3,29.86,ENE,59,3.0,8.0,68,0.00,,,0.00,meteohub,2013-09-12 01:02:00,
2013-09-11 18:07:00,61.2,50.9,29.86,NE,48,2.0,7.0,69,0.00,,,0.00,meteohub,2013-09-12 01:07:00,
2013-09-11 18:12:00,60.4,50.5,29.86,NE,54,2.0,7.0,70,0.00,,,0.00,meteohub,2013-09-12 01:12:00,
2013-09-11 18:17:00,60.1,51.1,29.86,NE,51,3.0,7.0,72,0.00,,,0.00,meteohub,2013-09-12 01:17:00,
2013-09-11 18:22:00,59.5,50.9,29.87,NE,52,3.0,5.0,73,0.00,,,0.00,meteohub,2013-09-12 01:22:00,
2013-09-11 18:27:00,59.0,50.7,29.87,NE,49,2.0,5.0,74,0.00,,,0.00,meteohub,2013-09-12 01:27:00,
2013-09-11 18:32:00,58.8,50.5,29.87,NE,46,3.0,5.0,74,0.00,,,0.00,meteohub,2013-09-12 01:32:00,
2013-09-11 18:37:00,58.5,50.2,29.87,NE,42,3.0,5.0,74,0.00,,,0.00,meteohub,2013-09-12 01:37:00,
2013-09-11 18:42:00,57.9,50.0,29.88,NE,48,0.0,5.0,75,0.00,,,0.00,meteohub,2013-09-12 01:42:00,
2013-09-11 18:47:00,57.6,50.0,29.88,NE,47,0.0,5.0,76,0.00,,,0.00,meteohub,2013-09-12 01:47:00,
2013-09-11 18:52:00,57.4,50.2,29.88,NE,48,0.0,4.0,77,0.00,,,0.00,meteohub,2013-09-12 01:52:00,
2013-09-11 18:57:00,57.0,50.2,29.88,NE,48,0.0,2.0,78,0.00,,,0.00,meteohub,2013-09-12 01:57:00,
2013-09-11 19:02:00,57.0,50.2,29.88,NE,47,0.0,1.0,78,0.00,,,0.00,meteohub,2013-09-12 02:02:00,
2013-09-11 19:07:00,56.8,50.4,29.89,NE,48,0.0,1.0,79,0.00,,,0.00,meteohub,2013-09-12 02:07:00,
2013-09-11 19:12:00,56.7,49.8,29.89,NNE,31,3.0,0.0,78,0.00,,,0.00,meteohub,2013-09-12 02:12:00,
2013-09-11 19:17:00,55.9,49.8,29.89,WSW,246,0.0,4.0,80,0.00,,,0.00,meteohub,2013-09-12 02:17:00,
2013-09-11 19:22:00,55.6,50.5,29.89,WSW,246,0.0,4.0,83,0.00,,,0.00,meteohub,2013-09-12 02:22:00,
2013-09-11 19:27:00,55.6,50.2,29.90,WSW,246,0.0,4.0,82,0.00,,,0.00,meteohub,2013-09-12 02:27:00,
2013-09-11 19:32:00,55.4,49.3,29.90,WSW,246,2.0,2.0,80,0.00,,,0.00,meteohub,2013-09-12 02:32:00,
2013-09-11 19:37:00,54.9,49.5,29.90,WSW,246,0.0,3.0,82,0.00,,,0.00,meteohub,2013-09-12 02:37:00,
2013-09-11 19:42:00,54.3,49.3,29.90,WSW,246,0.0,3.0,83,0.00,,,0.00,meteohub,2013-09-12 02:42:00,
2013-09-11 19:47:00,54.0,49.3,29.90,WSW,246,0.0,3.0,84,0.00,,,0.00,meteohub,2013-09-12 02:47:00,
2013-09-11 19:52:00,53.4,49.1,29.90,WSW,246,0.0,1.0,85,0.00,,,0.00,meteohub,2013-09-12 02:52:00,
2013-09-11 19:57:00,53.2,49.1,29.91,WSW,246,0.0,1.0,86,0.00,,,0.00,meteohub,2013-09-12 02:57:00,
2013-09-11 20:02:00,52.9,48.6,29.91,WSW,246,0.0,1.0,85,0.00,,,0.00,meteohub,2013-09-12 03:02:00,
2013-09-11 20:07:00,52.3,48.6,29.91,WSW,246,0.0,1.0,87,0.00,,,0.00,meteohub,2013-09-12 03:07:00,
2013-09-11 20:17:00,51.4,48.4,29.91,WSW,246,0.0,3.0,89,0.00,,,0.00,meteohub,2013-09-12 03:17:00,
2013-09-11 20:22:00,51.6,48.7,29.91,WSW,246,2.0,3.0,90,0.00,,,0.00,meteohub,2013-09-12 03:22:00,
2013-09-11 20:27:00,51.3,47.8,29.91,WSW,246,0.0,3.0,88,0.00,,,0.00,meteohub,2013-09-12 03:27:00,
2013-09-11 20:32:00,51.3,48.2,29.92,WSW,246,0.0,3.0,89,0.00,,,0.00,meteohub,2013-09-12 03:32:00,
2013-09-11 20:37:00,51.1,48.0,29.92,WSW,246,0.0,3.0,89,0.00,,,0.00,meteohub,2013-09-12 03:37:00,
2013-09-11 20:42:00,50.9,47.8,29.92,WSW,246,0.0,2.0,89,0.00,,,0.00,meteohub,2013-09-12 03:42:00,
2013-09-11 20:47:00,50.5,47.1,29.92,WSW,246,0.0,2.0,88,0.00,,,0.00,meteohub,2013-09-12 03:47:00,
2013-09-11 20:52:00,50.2,47.1,29.92,WSW,246,0.0,2.0,89,0.00,,,0.00,meteohub,2013-09-12 03:52:00,
2013-09-11 20:57:00,49.8,46.9,29.92,WSW,246,0.0,2.0,90,0.00,,,0.00,meteohub,2013-09-12 03:57:00,
2013-09-11 21:02:00,49.8,47.7,29.92,WSW,246,0.0,0.0,92,0.00,,,0.00,meteohub,2013-09-12 04:02:00,
2013-09-11 21:07:00,49.5,46.6,29.93,WSW,246,0.0,0.0,90,0.00,,,0.00,meteohub,2013-09-12 04:07:00,
2013-09-11 21:12:00,48.9,46.4,29.93,WSW,246,0.0,1.0,91,0.00,,,0.00,meteohub,2013-09-12 04:12:00,
2013-09-11 21:17:00,49.1,47.1,29.93,WSW,246,0.0,1.0,93,0.00,,,0.00,meteohub,2013-09-12 04:17:00,
2013-09-11 21:22:00,49.3,47.3,29.93,WSW,246,0.0,1.0,93,0.00,,,0.00,meteohub,2013-09-12 04:22:00,
2013-09-11 21:27:00,49.5,47.5,29.93,WSW,246,0.0,0.0,93,0.00,,,0.00,meteohub,2013-09-12 04:27:00,
2013-09-11 21:32:00,48.6,45.5,29.93,WSW,246,0.0,2.0,89,0.00,,,0.00,meteohub,2013-09-12 04:32:00,
2013-09-11 21:37:00,48.4,46.2,29.93,WSW,246,0.0,2.0,92,0.00,,,0.00,meteohub,2013-09-12 04:37:00,
2013-09-11 21:42:00,48.4,46.4,29.93,WSW,246,0.0,2.0,93,0.00,,,0.00,meteohub,2013-09-12 04:42:00,
2013-09-11 21:47:00,48.4,46.8,29.93,WSW,246,0.0,0.0,94,0.00,,,0.00,meteohub,2013-09-12 04:47:00,
2013-09-11 21:52:00,48.4,46.8,29.94,WSW,246,0.0,0.0,94,0.00,,,0.00,meteohub,2013-09-12 04:52:00,
2013-09-11 21:57:00,48.7,47.3,29.94,WSW,246,0.0,0.0,95,0.00,,,0.00,meteohub,2013-09-12 04:57:00,
2013-09-11 22:02:00,48.6,46.6,29.94,WSW,246,0.0,1.0,93,0.00,,,0.00,meteohub,2013-09-12 05:02:00,
2013-09-11 22:07:00,48.0,45.5,29.94,WSW,246,0.0,2.0,91,0.00,,,0.00,meteohub,2013-09-12 05:07:00,
2013-09-11 22:12:00,47.7,45.7,29.94,WSW,246,0.0,2.0,93,0.00,,,0.00,meteohub,2013-09-12 05:12:00,
2013-09-11 22:22:00,47.5,45.9,29.94,WSW,246,1.0,1.0,94,0.00,,,0.00,meteohub,2013-09-12 05:22:00,
2013-09-11 22:27:00,48.0,46.9,29.94,WSW,246,1.0,2.0,96,0.00,,,0.00,meteohub,2013-09-12 05:27:00,
2013-09-11 22:32:00,47.5,45.3,29.94,WSW,246,0.0,2.0,92,0.00,,,0.00,meteohub,2013-09-12 05:32:00,
2013-09-11 22:37:00,47.5,45.5,29.94,WSW,246,0.0,2.0,93,0.00,,,0.00,meteohub,2013-09-12 05:37:00,
2013-09-11 22:47:00,47.3,45.7,29.94,WSW,246,0.0,2.0,94,0.00,,,0.00,meteohub,2013-09-12 05:47:00,
2013-09-11 22:52:00,47.5,46.0,29.94,WSW,246,0.0,2.0,95,0.00,,,0.00,meteohub,2013-09-12 05:52:00,
2013-09-11 22:57:00,47.5,46.0,29.94,WSW,246,0.0,1.0,95,0.00,,,0.00,meteohub,2013-09-12 05:57:00,
2013-09-11 23:02:00,47.1,45.5,29.94,WSW,246,0.0,1.0,94,0.00,,,0.00,meteohub,2013-09-12 06:02:00,
2013-09-11 23:07:00,46.8,44.8,29.94,WSW,246,0.0,0.0,93,0.00,,,0.00,meteohub,2013-09-12 06:07:00,
2013-09-11 23:12:00,46.2,44.2,29.94,WSW,246,0.0,0.0,93,0.00,,,0.00,meteohub,2013-09-12 06:12:00,
2013-09-11 23:17:00,46.2,44.6,29.94,WSW,246,0.0,0.0,94,0.00,,,0.00,meteohub,2013-09-12 06:17:00,
2013-09-11 23:22:00,46.2,44.8,29.95,WSW,246,0.0,0.0,95,0.00,,,0.00,meteohub,2013-09-12 06:22:00,
2013-09-11 23:27:00,46.2,44.8,29.95,WSW,246,0.0,1.0,95,0.00,,,0.00,meteohub,2013-09-12 06:27:00,
2013-09-11 23:32:00,46.2,44.8,29.95,WSW,246,0.0,1.0,95,0.00,,,0.00,meteohub,2013-09-12 06:32:00,
2013-09-11 23:37:00,46.2,44.8,29.95,WSW,246,0.0,1.0,95,0.00,,,0.00,meteohub,2013-09-12 06:37:00,
2013-09-11 23:42:00,46.0,44.6,29.95,WSW,246,0.0,0.0,95,0.00,,,0.00,meteohub,2013-09-12 06:42:00,
2013-09-11 23:47:00,45.7,44.1,29.96,WSW,246,0.0,0.0,94,0.00,,,0.00,meteohub,2013-09-12 06:47:00,
2013-09-11 23:52:00,45.1,43.5,29.96,WSW,246,0.0,1.0,94,0.00,,,0.00,meteohub,2013-09-12 06:52:00,
2013-09-11 23:57:00,45.1,43.9,29.96,WSW,246,0.0,1.0,95,0.00,,,0.00,meteohub,2013-09-12 06:57:00,